createdAt,value
2019-02-26T00:01:26.242Z,21.87
2019-02-26T00:03:56.999Z,20.40
2019-02-26T00:06:28.468Z,19.40
2019-02-26T00:08:59.386Z,21.20
2019-02-26T00:11:33.316Z,19.93
2019-02-26T00:14:02.544Z,21.53
2019-02-26T00:16:37.597Z,21.22
2019-02-26T00:19:07.310Z,21.80
2019-02-26T00:21:36.408Z,22.00
2019-02-26T00:24:07.331Z,23.37
2019-02-26T00:26:40.342Z,20.47
2019-02-26T00:29:09.425Z,22.27
2019-02-26T00:31:39.083Z,22.20
2019-02-26T00:34:10.674Z,20.63
2019-02-26T00:36:39.489Z,19.17
2019-02-26T00:39:10.552Z,20.60
2019-02-26T00:41:40.473Z,20.70
2019-02-26T00:44:11.187Z,19.62
2019-02-26T00:46:40.552Z,19.73
2019-02-26T00:49:10.153Z,21.70
2019-02-26T00:51:41.740Z,21.07
2019-02-26T00:54:10.554Z,22.30
2019-02-26T00:56:41.096Z,21.30
2019-02-26T00:59:10.540Z,21.57
2019-02-26T01:01:44.059Z,21.80
2019-02-26T01:04:11.259Z,20.90
2019-02-26T01:06:40.976Z,20.90
2019-02-26T01:09:12.077Z,21.93
2019-02-26T01:11:43.011Z,20.93
2019-02-26T01:14:13.676Z,20.30
2019-02-26T01:16:46.103Z,21.50
2019-02-26T01:19:17.519Z,21.30
2019-02-26T01:21:46.974Z,20.90
2019-02-26T01:24:16.474Z,20.10
2019-02-26T01:26:45.832Z,20.27
2019-02-26T01:29:18.613Z,20.30
2019-02-26T01:31:46.610Z,22.17
2019-02-26T01:34:18.072Z,20.48
2019-02-26T01:36:49.604Z,22.13
2019-02-26T01:39:21.130Z,19.87
2019-02-26T01:41:53.405Z,23.18
2019-02-26T01:44:21.686Z,21.20
2019-02-26T01:46:53.311Z,21.17
2019-02-26T01:49:23.737Z,21.20
2019-02-26T01:51:54.021Z,21.07
2019-02-26T01:54:23.819Z,22.80
2019-02-26T01:56:53.535Z,20.25
2019-02-26T01:59:22.903Z,19.30
2019-02-26T02:01:53.755Z,21.15
2019-02-26T02:04:23.870Z,19.57
2019-02-26T02:06:54.879Z,18.87
2019-02-26T02:09:27.850Z,20.37
2019-02-26T02:11:59.534Z,21.12
2019-02-26T02:14:28.895Z,20.60
2019-02-26T02:16:58.511Z,18.47
2019-02-26T02:19:30.193Z,20.77
2019-02-26T02:21:58.922Z,20.27
2019-02-26T02:24:28.835Z,19.85
2019-02-26T02:27:00.272Z,21.27
2019-02-26T02:29:31.938Z,20.70
2019-02-26T02:32:02.836Z,19.00
2019-02-26T02:34:36.587Z,20.30
2019-02-26T02:37:05.264Z,19.80
2019-02-26T02:39:34.920Z,20.50
2019-02-26T02:42:04.265Z,20.30
2019-02-26T02:44:34.076Z,18.70
2019-02-26T02:47:05.751Z,19.90
2019-02-26T02:49:38.918Z,20.33
2019-02-26T02:52:07.231Z,22.07
2019-02-26T02:54:38.566Z,20.52
2019-02-26T02:57:09.966Z,20.03
2019-02-26T02:59:42.304Z,20.77
2019-02-26T03:02:12.666Z,22.80
2019-02-26T03:04:42.105Z,21.70
2019-02-26T03:07:11.642Z,21.07
2019-02-26T03:09:43.297Z,21.63
2019-02-26T03:12:12.633Z,21.17
2019-02-26T03:14:44.516Z,20.80
2019-02-26T03:17:14.758Z,20.60
2019-02-26T03:19:44.720Z,20.60
2019-02-26T03:22:17.398Z,19.87
2019-02-26T03:24:45.438Z,18.70
2019-02-26T03:27:14.840Z,22.57
2019-02-26T03:29:45.057Z,20.20
2019-02-26T03:32:15.809Z,21.00
2019-02-26T03:34:46.224Z,21.70
2019-02-26T03:37:16.024Z,19.70
2019-02-26T03:39:45.418Z,20.23
2019-02-26T03:42:16.679Z,20.00
2019-02-26T03:44:47.036Z,20.50
2019-02-26T03:47:18.813Z,21.07
2019-02-26T03:49:48.145Z,21.80
2019-02-26T03:52:17.787Z,20.95
2019-02-26T03:54:48.590Z,20.32
2019-02-26T03:57:20.096Z,21.90
2019-02-26T03:59:49.287Z,22.53
2019-02-26T04:02:20.857Z,20.57
2019-02-26T04:04:53.894Z,21.10
2019-02-26T04:07:22.847Z,20.83
2019-02-26T04:09:53.110Z,20.20
2019-02-26T04:12:23.330Z,20.73
2019-02-26T04:14:52.983Z,19.82
2019-02-26T04:17:25.739Z,22.07
2019-02-26T04:19:54.405Z,20.87
2019-02-26T04:22:28.075Z,20.03
2019-02-26T04:25:06.379Z,20.80
2019-02-26T04:27:56.358Z,19.80
2019-02-26T04:30:56.359Z,20.27
2019-02-26T04:33:30.320Z,21.27
2019-02-26T04:36:20.449Z,20.80
2019-02-26T04:39:16.913Z,24.67
2019-02-26T04:42:09.459Z,23.18
2019-02-26T04:45:09.066Z,21.87
2019-02-26T04:47:49.498Z,19.67
2019-02-26T04:50:18.181Z,21.30
2019-02-26T04:52:47.547Z,20.60
2019-02-26T04:55:17.151Z,20.33
2019-02-26T04:57:49.062Z,19.70
2019-02-26T05:00:18.213Z,19.47
2019-02-26T05:02:47.581Z,20.30
2019-02-26T05:05:17.148Z,21.03
2019-02-26T05:07:47.992Z,19.67
2019-02-26T05:10:17.622Z,19.60
2019-02-26T05:12:47.263Z,19.40
2019-02-26T05:15:18.076Z,19.90
2019-02-26T05:17:47.927Z,18.00
2019-02-26T05:20:18.955Z,19.23
2019-02-26T05:22:48.718Z,19.90
2019-02-26T05:25:19.805Z,18.67
2019-02-26T05:27:50.893Z,18.20
2019-02-26T05:30:22.880Z,18.60
2019-02-26T05:32:56.590Z,19.23
2019-02-26T05:35:25.283Z,22.07
2019-02-26T05:37:56.190Z,20.70
2019-02-26T05:40:27.360Z,19.73
2019-02-26T05:42:59.318Z,18.87
2019-02-26T05:45:29.863Z,19.80
2019-02-26T05:48:01.212Z,17.87
2019-02-26T05:50:34.667Z,21.10
2019-02-26T05:53:04.917Z,19.83
2019-02-26T05:55:34.853Z,20.06
2019-02-26T05:58:04.489Z,20.70
2019-02-26T06:00:34.813Z,20.65
2019-02-26T06:03:07.192Z,19.90
2019-02-26T06:05:35.896Z,21.57
2019-02-26T06:08:05.618Z,19.67
2019-02-26T06:10:35.042Z,21.57
2019-02-26T06:13:05.376Z,19.83
2019-02-26T06:15:35.800Z,19.93
2019-02-26T06:18:06.470Z,19.80
2019-02-26T06:20:36.645Z,20.37
2019-02-26T06:23:06.465Z,21.10
2019-02-26T06:25:36.126Z,20.80
2019-02-26T06:28:07.697Z,18.47
2019-02-26T06:30:36.898Z,20.17
2019-02-26T06:33:09.120Z,21.87
2019-02-26T06:35:38.435Z,20.10
2019-02-26T06:38:09.806Z,21.17
2019-02-26T06:40:42.314Z,20.43
2019-02-26T06:43:11.502Z,18.35
2019-02-26T06:45:43.062Z,21.30
2019-02-26T06:48:14.654Z,21.43
2019-02-26T06:50:43.485Z,19.63
2019-02-26T06:53:14.350Z,18.77
2019-02-26T06:55:44.876Z,18.82
2019-02-26T06:58:22.122Z,18.45
2019-02-26T07:00:55.378Z,17.07
2019-02-26T07:03:25.070Z,16.40
2019-02-26T07:05:54.884Z,16.10
2019-02-26T07:08:26.769Z,17.25
2019-02-26T07:10:55.715Z,19.10
2019-02-26T07:13:30.575Z,18.67
2019-02-26T07:16:06.026Z,18.40
2019-02-26T07:18:35.676Z,16.77
2019-02-26T07:21:05.039Z,16.63
2019-02-26T07:23:37.627Z,17.50
2019-02-26T07:26:06.668Z,16.23
2019-02-26T07:28:39.703Z,18.10
2019-02-26T07:31:10.299Z,18.37
2019-02-26T07:33:40.041Z,19.40
2019-02-26T07:36:09.722Z,18.10
2019-02-26T07:38:41.507Z,17.47
2019-02-26T07:41:10.147Z,19.20
2019-02-26T07:43:41.797Z,21.07
2019-02-26T07:46:12.695Z,21.97
2019-02-26T07:48:42.082Z,21.57
2019-02-26T07:51:12.442Z,23.87
2019-02-26T07:53:48.518Z,22.33
2019-02-26T07:56:13.824Z,21.68
2019-02-26T07:58:43.257Z,21.68
2019-02-26T08:01:12.911Z,22.37
2019-02-26T08:03:44.036Z,21.53
2019-02-26T08:06:14.016Z,20.55
2019-02-26T08:08:44.910Z,21.07
2019-02-26T08:11:14.990Z,21.47
2019-02-26T08:13:44.379Z,25.55
2019-02-26T08:16:13.904Z,24.57
2019-02-26T08:18:43.280Z,21.23
2019-02-26T08:21:12.927Z,21.70
2019-02-26T08:23:43.668Z,23.47
2019-02-26T08:26:15.005Z,22.90
2019-02-26T08:28:45.815Z,22.35
2019-02-26T08:31:20.673Z,23.00
2019-02-26T08:33:51.795Z,21.27
2019-02-26T08:36:21.274Z,21.07
2019-02-26T08:38:52.047Z,22.03
2019-02-26T08:41:22.166Z,20.68
2019-02-26T08:43:54.000Z,21.75
2019-02-26T08:46:23.178Z,23.95
2019-02-26T08:48:52.623Z,20.70
2019-02-26T08:51:22.070Z,22.37
2019-02-26T08:53:51.903Z,23.07
2019-02-26T08:56:26.217Z,24.85
2019-02-26T08:58:55.384Z,24.43
2019-02-26T09:01:25.159Z,24.03
2019-02-26T09:03:55.846Z,22.97
2019-02-26T09:06:25.958Z,22.17
2019-02-26T09:08:57.347Z,22.57
2019-02-26T09:11:28.636Z,21.87
2019-02-26T09:13:59.591Z,23.30
2019-02-26T09:16:30.346Z,22.23
2019-02-26T09:18:59.544Z,22.83
2019-02-26T09:21:30.438Z,23.43
2019-02-26T09:24:04.227Z,24.23
2019-02-26T09:26:31.208Z,24.00
2019-02-26T09:29:00.577Z,24.17
2019-02-26T09:31:31.220Z,23.25
2019-02-26T09:34:00.826Z,22.90
2019-02-26T09:36:30.186Z,23.53
2019-02-26T09:38:59.553Z,23.87
2019-02-26T09:41:29.216Z,23.60
2019-02-26T09:43:59.381Z,23.90
2019-02-26T09:46:31.771Z,25.10
2019-02-26T09:49:03.148Z,23.00
2019-02-26T09:51:33.534Z,25.23
2019-02-26T09:54:03.684Z,24.10
2019-02-26T09:56:33.241Z,23.80
2019-02-26T09:59:04.737Z,24.23
2019-02-26T10:01:37.699Z,24.24
2019-02-26T10:04:06.575Z,24.43
2019-02-26T10:06:37.906Z,25.00
2019-02-26T10:09:10.876Z,22.73
2019-02-26T10:11:41.929Z,24.63
2019-02-26T10:14:12.765Z,25.37
2019-02-26T10:16:44.566Z,25.33
2019-02-26T10:19:14.953Z,24.27
2019-02-26T10:21:45.255Z,24.45
2019-02-26T10:24:14.700Z,25.70
2019-02-26T10:26:44.340Z,25.55
2019-02-26T10:29:13.962Z,27.57
2019-02-26T10:31:43.831Z,24.82
2019-02-26T10:34:15.681Z,24.40
2019-02-26T10:36:47.278Z,24.70
2019-02-26T10:39:20.087Z,24.18
2019-02-26T10:41:47.617Z,26.10
2019-02-26T10:44:17.282Z,24.95
2019-02-26T10:46:47.171Z,25.60
2019-02-26T10:49:16.856Z,24.90
2019-02-26T10:51:46.555Z,24.18
2019-02-26T10:54:17.945Z,24.67
2019-02-26T10:56:46.933Z,27.13
2019-02-26T10:59:19.567Z,24.67
2019-02-26T11:01:51.679Z,24.45
2019-02-26T11:04:19.114Z,25.40
2019-02-26T11:06:50.691Z,23.95
2019-02-26T11:09:25.310Z,24.02
2019-02-26T11:11:51.748Z,24.63
2019-02-26T11:14:21.738Z,25.05
2019-02-26T11:16:51.093Z,25.82
2019-02-26T11:19:20.651Z,25.00
2019-02-26T11:21:51.951Z,25.53
2019-02-26T11:24:23.323Z,26.57
2019-02-26T11:26:52.104Z,25.00
2019-02-26T11:29:21.525Z,25.67
2019-02-26T11:31:51.192Z,25.33
2019-02-26T11:34:20.988Z,25.27
2019-02-26T11:36:54.179Z,25.47
2019-02-26T11:39:23.900Z,25.40
2019-02-26T11:41:56.249Z,25.15
2019-02-26T11:44:25.904Z,25.30
2019-02-26T11:46:56.618Z,25.20
2019-02-26T11:49:26.020Z,24.80
2019-02-26T11:51:56.343Z,25.50
2019-02-26T11:54:25.717Z,25.07
2019-02-26T11:56:55.068Z,24.60
2019-02-26T11:59:24.669Z,26.00
2019-02-26T12:01:56.022Z,26.17
2019-02-26T12:04:25.149Z,22.77
2019-02-26T12:06:55.894Z,22.23
2019-02-26T12:09:25.936Z,23.13
2019-02-26T12:11:56.063Z,23.53
2019-02-26T12:14:27.747Z,22.15
2019-02-26T12:16:57.494Z,21.80
2019-02-26T12:19:28.418Z,24.13
2019-02-26T12:22:00.798Z,23.47
2019-02-26T12:24:31.271Z,21.87
2019-02-26T12:27:00.371Z,20.63
2019-02-26T12:29:29.864Z,22.17
2019-02-26T12:32:01.181Z,20.00
2019-02-26T12:34:30.278Z,20.83
2019-02-26T12:37:02.813Z,21.10
2019-02-26T12:39:33.517Z,20.73
2019-02-26T12:42:02.866Z,19.10
2019-02-26T12:44:34.787Z,18.67
2019-02-26T12:47:03.525Z,19.27
2019-02-26T12:49:35.628Z,15.80
2019-02-26T12:52:04.218Z,15.40
2019-02-26T12:54:37.276Z,16.80
2019-02-26T12:57:04.625Z,15.50
2019-02-26T12:59:34.165Z,13.40
2019-02-26T13:02:05.565Z,14.73
2019-02-26T13:04:37.378Z,14.40
2019-02-26T13:07:08.648Z,9.77
2019-02-26T13:09:41.114Z,10.50
2019-02-26T13:12:07.817Z,11.30
2019-02-26T13:14:37.446Z,8.57
2019-02-26T13:17:07.151Z,9.53
2019-02-26T13:19:37.293Z,11.93
2019-02-26T13:22:11.959Z,11.03
2019-02-26T13:24:38.198Z,9.80
2019-02-26T13:27:07.559Z,9.90
2019-02-26T13:29:42.394Z,9.95
2019-02-26T13:32:13.117Z,12.40
2019-02-26T13:34:39.939Z,12.73
2019-02-26T13:37:09.341Z,12.20
2019-02-26T13:39:41.432Z,12.77
2019-02-26T13:42:13.246Z,11.90
2019-02-26T13:44:40.804Z,11.43
2019-02-26T13:47:10.556Z,12.67
2019-02-26T13:49:40.585Z,12.10
2019-02-26T13:52:09.947Z,12.63
2019-02-26T13:54:39.613Z,12.00
2019-02-26T13:57:09.341Z,14.33
2019-02-26T13:59:38.691Z,12.73
2019-02-26T14:02:13.893Z,13.60
2019-02-26T14:04:43.707Z,13.75
2019-02-26T14:07:13.324Z,12.97
2019-02-26T14:09:42.788Z,14.30
2019-02-26T14:12:12.156Z,14.20
2019-02-26T14:14:41.728Z,14.00
2019-02-26T14:17:11.111Z,15.20
2019-02-26T14:19:40.807Z,13.28
2019-02-26T14:22:10.162Z,14.20
2019-02-26T14:24:39.851Z,14.37
2019-02-26T14:27:09.850Z,12.45
2019-02-26T14:29:39.554Z,13.03
2019-02-26T14:32:09.169Z,14.23
2019-02-26T14:34:40.242Z,13.88
2019-02-26T14:37:10.938Z,14.47
2019-02-26T14:39:40.603Z,12.97
2019-02-26T14:42:09.969Z,13.70
2019-02-26T14:44:39.660Z,12.20
2019-02-26T14:47:09.023Z,13.20
2019-02-26T14:49:38.679Z,14.17
2019-02-26T14:52:08.554Z,13.80
2019-02-26T14:54:37.889Z,14.03
2019-02-26T14:57:07.551Z,12.40
2019-02-26T14:59:37.203Z,12.43
2019-02-26T15:02:07.123Z,12.07
2019-02-26T15:04:37.101Z,13.13
2019-02-26T15:07:06.669Z,12.93
2019-02-26T15:09:37.036Z,10.45
2019-02-26T15:12:08.074Z,10.90
2019-02-26T15:14:37.509Z,11.57
2019-02-26T15:17:06.850Z,10.47
2019-02-26T15:19:49.214Z,10.58
2019-02-26T15:22:08.312Z,10.53
2019-02-26T15:24:37.974Z,11.73
2019-02-26T15:27:07.325Z,11.20
2019-02-26T15:29:37.145Z,12.40
2019-02-26T15:32:07.137Z,10.37
2019-02-26T15:34:37.193Z,10.80
2019-02-26T15:37:06.801Z,10.30
2019-02-26T15:39:37.155Z,10.05
2019-02-26T15:42:06.836Z,10.23
2019-02-26T15:44:37.426Z,10.13
2019-02-26T15:47:07.054Z,11.17
2019-02-26T15:49:37.768Z,10.65
2019-02-26T15:52:07.796Z,11.17
2019-02-26T15:54:37.587Z,9.97
2019-02-26T15:57:07.964Z,12.10
2019-02-26T15:59:37.413Z,12.68
2019-02-26T16:02:06.817Z,12.80
2019-02-26T16:04:37.516Z,12.43
2019-02-26T16:07:06.898Z,12.50
2019-02-26T16:09:37.420Z,12.15
2019-02-26T16:12:07.240Z,11.53
2019-02-26T16:14:37.507Z,10.63
2019-02-26T16:17:07.075Z,11.97
2019-02-26T16:19:37.254Z,11.90
2019-02-26T16:22:06.864Z,11.77
2019-02-26T16:24:37.527Z,11.97
2019-02-26T16:27:07.336Z,14.33
2019-02-26T16:29:37.977Z,13.27
2019-02-26T16:32:07.368Z,13.30
2019-02-26T16:34:38.322Z,13.77
2019-02-26T17:25:10.647Z,13.83
2019-02-26T17:27:40.314Z,13.67
2019-02-26T17:30:12.450Z,14.50
2019-02-26T17:32:42.094Z,14.38
2019-02-26T17:35:12.595Z,15.00
2019-02-26T17:37:42.306Z,16.00
2019-02-26T17:40:20.285Z,17.27
2019-02-26T17:42:51.339Z,19.12
2019-02-26T17:45:26.331Z,16.87
2019-02-26T17:47:57.408Z,17.90
2019-02-26T17:50:33.581Z,17.37
2019-02-26T17:53:03.518Z,16.20
2019-02-26T17:55:33.163Z,17.00
2019-02-26T17:58:02.785Z,16.10
2019-02-26T18:00:33.940Z,16.93
2019-02-26T18:03:06.391Z,15.47
2019-02-26T18:05:34.375Z,16.10
2019-02-26T18:08:04.064Z,16.95
2019-02-26T18:10:33.411Z,16.73
2019-02-26T18:13:03.462Z,17.37
2019-02-26T18:15:32.809Z,16.93
2019-02-26T18:18:02.322Z,16.97
2019-02-26T18:20:31.666Z,16.80
2019-02-26T18:23:01.475Z,16.60
2019-02-26T18:25:32.100Z,17.55
2019-02-26T18:28:01.711Z,16.80
2019-02-26T18:30:32.560Z,16.40
2019-02-26T18:33:02.223Z,17.45
2019-02-26T18:35:31.643Z,16.90
2019-02-26T18:38:01.300Z,17.93
2019-02-26T18:40:30.643Z,17.50
2019-02-26T18:43:00.171Z,16.97
2019-02-26T18:45:30.834Z,16.43
2019-02-26T18:48:00.298Z,17.90
2019-02-26T18:50:30.152Z,22.30
2019-02-26T18:52:59.508Z,22.70
2019-02-26T18:55:32.312Z,19.73
2019-02-26T18:58:00.674Z,18.70
2019-02-26T19:00:33.024Z,16.80
2019-02-26T19:03:02.412Z,17.63
2019-02-26T19:05:32.183Z,18.60
2019-02-26T19:08:05.536Z,22.30
2019-02-26T19:10:33.285Z,24.43
2019-02-26T19:13:03.342Z,18.57
2019-02-26T19:15:34.243Z,23.20
2019-02-26T19:18:03.700Z,23.73
2019-02-26T19:20:38.198Z,22.30
2019-02-26T19:23:07.661Z,23.07
2019-02-26T19:25:41.413Z,20.70
2019-02-26T19:28:09.895Z,17.80
2019-02-26T19:30:39.688Z,18.90
2019-02-26T19:33:09.404Z,18.37
2019-02-26T19:35:40.497Z,19.70
2019-02-26T19:38:10.630Z,15.45
2019-02-26T19:40:58.383Z,15.63
2019-02-26T19:43:28.896Z,16.63
2019-02-26T19:45:58.531Z,16.17
2019-02-26T19:48:30.487Z,17.67
2019-02-26T19:50:58.952Z,18.73
2019-02-26T19:53:28.417Z,19.23
2019-02-26T19:55:58.010Z,20.70
2019-02-26T19:58:27.536Z,22.90
2019-02-26T20:00:56.876Z,22.53
2019-02-26T20:03:26.494Z,19.63
2019-02-26T20:05:55.844Z,16.30
2019-02-26T20:08:25.525Z,16.70
2019-02-26T20:10:54.869Z,16.07
2019-02-26T20:13:25.650Z,20.47
2019-02-26T20:15:55.422Z,16.97
2019-02-26T20:18:26.170Z,17.50
2019-02-26T20:20:56.008Z,16.30
2019-02-26T20:23:25.562Z,14.70
2019-02-26T20:25:55.264Z,15.83
2019-02-26T20:28:24.684Z,15.33
2019-02-26T20:30:54.330Z,15.00
2019-02-26T20:33:23.689Z,15.40
2019-02-26T20:35:53.032Z,18.15
2019-02-26T20:38:22.938Z,16.35
2019-02-26T20:40:52.970Z,17.73
2019-02-26T20:43:22.982Z,16.95
2019-02-26T20:45:52.633Z,16.32
2019-02-26T20:48:22.034Z,15.60
2019-02-26T20:50:53.749Z,15.00
2019-02-26T20:53:22.818Z,16.07
2019-02-26T20:55:52.930Z,17.63
2019-02-26T20:58:23.281Z,15.60
2019-02-26T21:00:58.818Z,15.73
2019-02-26T21:03:29.405Z,17.77
2019-02-26T21:05:59.055Z,17.17
2019-02-26T21:08:30.938Z,17.50
2019-02-26T21:10:59.851Z,15.77
2019-02-26T21:13:29.210Z,15.97
2019-02-26T21:15:58.814Z,15.83
2019-02-26T21:18:30.255Z,15.30
2019-02-26T21:20:59.219Z,16.83
2019-02-26T21:23:28.757Z,16.17
2019-02-26T21:25:58.095Z,18.70
2019-02-26T21:28:27.756Z,20.50
2019-02-26T21:30:57.102Z,20.83
2019-02-26T21:33:30.588Z,18.40
2019-02-26T21:35:57.914Z,16.67
2019-02-26T21:38:27.279Z,16.83
2019-02-26T21:40:56.850Z,16.40
2019-02-26T21:43:26.241Z,15.47
2019-02-26T21:45:56.133Z,17.13
2019-02-26T21:48:25.473Z,17.00
2019-02-26T21:50:55.419Z,17.47
2019-02-26T21:53:25.012Z,16.37
2019-02-26T21:55:55.664Z,17.40
2019-02-26T21:58:26.931Z,16.90
2019-02-26T22:00:56.151Z,16.87
2019-02-26T22:03:26.567Z,15.87
2019-02-26T22:06:05.080Z,17.63
2019-02-26T22:08:28.094Z,18.33
2019-02-26T22:10:57.458Z,19.80
2019-02-26T22:13:29.051Z,20.10
2019-02-26T22:15:58.041Z,17.37
2019-02-26T22:18:31.169Z,16.37
2019-02-26T22:20:58.457Z,16.80
2019-02-26T22:23:29.384Z,17.63
2019-02-26T22:25:59.110Z,16.33
2019-02-26T22:28:28.449Z,16.87
2019-02-26T22:30:58.088Z,16.90
2019-02-26T22:33:27.713Z,17.30
2019-02-26T22:35:59.846Z,17.17
2019-02-26T22:38:28.481Z,17.93
2019-02-26T22:40:59.948Z,16.90
2019-02-26T22:43:29.185Z,17.57
2019-02-26T22:46:01.035Z,16.80
2019-02-26T22:48:30.128Z,16.48
2019-02-26T22:51:00.237Z,17.83
2019-02-26T22:53:30.588Z,17.07
2019-02-26T22:56:00.206Z,16.83
2019-02-26T22:58:29.542Z,17.00
2019-02-26T23:01:18.660Z,17.27
2019-02-26T23:03:49.619Z,16.87
2019-02-26T23:06:20.353Z,17.07
2019-02-26T23:08:49.760Z,17.15
2019-02-26T23:11:19.458Z,16.90
2019-02-26T23:13:48.959Z,16.20
2019-02-26T23:16:19.153Z,17.60
2019-02-26T23:18:48.661Z,17.63
2019-02-26T23:21:18.331Z,18.20
2019-02-26T23:23:48.331Z,16.77
2019-02-26T23:26:17.690Z,18.53
2019-02-26T23:28:47.326Z,18.10
2019-02-26T23:31:17.184Z,16.07
2019-02-26T23:33:48.407Z,17.83
2019-02-26T23:36:17.653Z,18.43
2019-02-26T23:38:47.458Z,18.65
2019-02-26T23:41:16.890Z,17.93
2019-02-26T23:43:46.610Z,18.42
2019-02-26T23:46:15.959Z,17.50
2019-02-26T23:48:45.597Z,18.17
2019-02-26T23:51:15.203Z,20.70
2019-02-26T23:53:44.546Z,19.62
2019-02-26T23:56:16.770Z,16.65
2019-02-26T23:58:46.025Z,17.73
